| time (UTC) | temp C | wind direction | speed KPH | gust KPH | rain 1hr cm | rain 24hr cm | rain mn cm | humidity % | barometer mb |
| 20260506091521 | 11 | 360 | 11.3 | 19.3 | 0.00 | 0.00 | 0.00 | 62 | 1009.9 |
| 20260506090019 | 11 | 360 | 6.4 | 16.1 | 0.00 | 0.00 | 0.00 | 62 | 1010.0 |
| 20260506084519 | 11 | 360 | 6.4 | 14.5 | 0.00 | 0.00 | 0.00 | 61 | 1010.0 |
| 20260506083015 | 11 | 360 | 4.8 | 16.1 | 0.00 | 0.00 | 0.00 | 61 | 1009.5 |
| 20260506081521 | 11 | 360 | 8.0 | 16.1 | 0.00 | 0.00 | 0.00 | 60 | 1009.4 |
| 20260506073010 | 11 | 360 | 14.5 | 25.7 | 0.00 | 0.00 | 0.00 | 59 | 1009.1 |
| 20260506071509 | 12 | 360 | 14.5 | 22.5 | 0.00 | 0.00 | 0.00 | 59 | 1009.0 |
| 20260506061554 | 13 | 360 | 16.1 | 25.7 | 0.00 | 0.00 | 0.00 | 56 | 1008.9 |
| 20260506044538 | 15 | 360 | 12.9 | 27.4 | 0.00 | 0.00 | 0.00 | 51 | 1007.9 |
| 20260506043032 | 16 | 360 | 14.5 | 20.9 | 0.00 | 0.00 | 0.00 | 49 | 1007.7 |
| 20260506041534 | 17 | 360 | 12.9 | 24.1 | 0.00 | 0.00 | 0.00 | 47 | 1007.6 |
| 20260506040028 | 17 | 360 | 9.7 | 17.7 | 0.00 | 0.00 | 0.00 | 46 | 1007.5 |
| 20260506034523 | 17 | 360 | 8.0 | 29.0 | 0.00 | 0.00 | 0.00 | 44 | 1007.2 |
| 20260506033020 | 18 | 360 | 11.3 | 29.0 | 0.00 | 0.00 | 0.00 | 43 | 1007.2 |
| 20260506031526 | 18 | 360 | 9.7 | 22.5 | 0.00 | 0.00 | 0.00 | 41 | 1007.0 |
| 20260506030014 | 20 | 360 | 19.3 | 30.6 | 0.00 | 0.00 | 0.00 | 38 | 1006.9 |
| 20260506024525 | 21 | 360 | 16.1 | 24.1 | 0.00 | 0.00 | 0.00 | 36 | 1006.5 |
| 20260506023008 | 21 | 360 | 12.9 | 22.5 | 0.00 | 0.00 | 0.00 | 34 | 1006.2 |
| 20260506021510 | 22 | 360 | 9.7 | 19.3 | 0.00 | 0.00 | 0.00 | 33 | 1006.1 |
| 20260506020006 | 23 | 360 | 8.0 | 19.3 | 0.00 | 0.00 | 0.00 | 32 | 1005.9 |
| 20260506014510 | 23 | 360 | 9.7 | 20.9 | 0.00 | 0.00 | 0.00 | 30 | 1005.6 |
| 20260506013002 | 25 | 360 | 16.1 | 27.4 | 0.00 | 0.00 | 0.00 | 28 | 1005.2 |
| 20260506011502 | 26 | 360 | 11.3 | 20.9 | 0.00 | 0.00 | 0.00 | 25 | 1005.0 |
| 20260506010002 | 26 | 360 | 6.4 | 16.1 | 0.00 | 0.00 | 0.00 | 24 | 1004.8 |
| 20260506004501 | 26 | 360 | 6.4 | 12.9 | 0.00 | 0.00 | 0.00 | 23 | 1004.5 |
| 20260506003100 | 27 | 360 | 4.8 | 12.9 | 0.00 | 0.00 | 0.00 | 22 | 1004.4 |
| 20260506001605 | 27 | 360 | 8.0 | 17.7 | 0.00 | 0.00 | 0.00 | 21 | 1004.2 |
| 20260506000121 | 27 | 360 | 11.3 | 17.7 | 0.00 | 0.00 | 0.00 | 20 | 1004.0 |
| 20260505234601 | 27 | 66 | 6.4 | 14.5 | 0.00 | 0.00 | 0.00 | 20 | 1004.0 |
| 20260505233101 | 28 | 360 | 6.4 | 14.5 | 0.00 | 0.00 | 0.00 | 19 | 1004.1 |
| 20260505231613 | 29 | 360 | 3.2 | 14.5 | 0.00 | 0.00 | 0.00 | 18 | 1003.5 |
| 20260505230108 | 30 | 360 | 20.9 | 38.6 | 0.00 | 0.00 | 0.00 | 16 | 1003.4 |
| 20260505224558 | 31 | 298 | 22.5 | 41.8 | 0.00 | 0.00 | 0.00 | 8 | 1002.6 |
| 20260505223055 | 31 | 360 | 29.0 | 38.6 | 0.00 | 0.00 | 0.00 | 8 | 1003.2 |
| 20260505221600 | 31 | 360 | 25.7 | 45.1 | 0.00 | 0.00 | 0.00 | 9 | 1003.3 |
| 20260505220054 | 31 | 252 | 33.8 | 48.3 | 0.00 | 0.00 | 0.00 | 8 | 1003.4 |
| 20260505214553 | 32 | 360 | 25.7 | 41.8 | 0.00 | 0.00 | 0.00 | 8 | 1003.4 |
| 20260505213054 | 32 | 360 | 19.3 | 35.4 | 0.00 | 0.00 | 0.00 | 8 | 1003.3 |
| 20260505211552 | 32 | 360 | 16.1 | 30.6 | 0.00 | 0.00 | 0.00 | 9 | 1003.1 |
| 20260505210051 | 32 | 360 | 14.5 | 35.4 | 0.00 | 0.00 | 0.00 | 8 | 1003.6 |
| 20260505204553 | 32 | 360 | 20.9 | 41.8 | 0.00 | 0.00 | 0.00 | 7 | 1003.5 |
| 20260505203058 | 32 | 360 | 27.4 | 43.5 | 0.00 | 0.00 | 0.00 | 8 | 1003.7 |
| 20260505201550 | 33 | 360 | 14.5 | 30.6 | 0.00 | 0.00 | 0.00 | 8 | 1003.6 |
| 20260505200049 | 33 | 360 | 24.1 | 33.8 | 0.00 | 0.00 | 0.00 | 7 | 1003.6 |
| 20260505194604 | 33 | 238 | 12.9 | 29.0 | 0.00 | 0.00 | 0.00 | 8 | 1003.8 |
| 20260505193044 | 33 | 302 | 19.3 | 30.6 | 0.00 | 0.00 | 0.00 | 8 | 1003.8 |
| 20260505191554 | 33 | 248 | 11.3 | 30.6 | 0.00 | 0.00 | 0.00 | 9 | 1004.1 |
| 20260505190041 | 32 | 360 | 17.7 | 30.6 | 0.00 | 0.00 | 0.00 | 10 | 1004.1 |
| 20260505184539 | 32 | 360 | 20.9 | 38.6 | 0.00 | 0.00 | 0.00 | 9 | 1004.2 |
| 20260505183040 | 32 | 360 | 6.4 | 25.7 | 0.00 | 0.00 | 0.00 | 11 | 1004.4 |
| 20260505181537 | 31 | 305 | 11.3 | 32.2 | 0.00 | 0.00 | 0.00 | 14 | 1004.3 |
| 20260505180040 | 31 | 360 | 12.9 | 30.6 | 0.00 | 0.00 | 0.00 | 17 | 1004.7 |
| 20260505174532 | 30 | 247 | 14.5 | 29.0 | 0.00 | 0.00 | 0.00 | 22 | 1004.7 |
| 20260505173028 | 29 | 360 | 19.3 | 29.0 | 0.00 | 0.00 | 0.00 | 25 | 1004.7 |
| 20260505171522 | 28 | 360 | 22.5 | 30.6 | 0.00 | 0.00 | 0.00 | 29 | 1004.9 |
| 20260505170024 | 28 | 246 | 17.7 | 33.8 | 0.00 | 0.00 | 0.00 | 29 | 1005.0 |
| 20260505164518 | 27 | 241 | 19.3 | 29.0 | 0.00 | 0.00 | 0.00 | 31 | 1005.0 |
| 20260505163017 | 27 | 360 | 16.1 | 30.6 | 0.00 | 0.00 | 0.00 | 31 | 1005.1 |
| 20260505161513 | 27 | 256 | 24.1 | 35.4 | 0.00 | 0.00 | 0.00 | 32 | 1004.9 |
| 20260505153003 | 25 | 360 | 22.5 | 35.4 | 0.00 | 0.00 | 0.00 | 40 | 1004.5 |
| 20260505151601 | 25 | 360 | 17.7 | 30.6 | 0.00 | 0.00 | 0.00 | 42 | 1004.5 |
| 20260505150120 | 24 | 360 | 20.9 | 35.4 | 0.00 | 0.00 | 0.00 | 45 | 1004.4 |
| 20260505124556 | 20 | 360 | 17.7 | 29.0 | 0.00 | 0.00 | 0.00 | 59 | 1003.5 |
| 20260505123057 | 20 | 360 | 19.3 | 27.4 | 0.00 | 0.00 | 0.00 | 60 | 1003.3 |
| 20260505121618 | 20 | 360 | 20.9 | 32.2 | 0.00 | 0.00 | 0.00 | 60 | 1003.1 |
| 20260505120046 | 20 | 360 | 19.3 | 29.0 | 0.00 | 0.00 | 0.00 | 60 | 1003.1 |
| 20260505114545 | 20 | 360 | 17.7 | 29.0 | 0.00 | 0.00 | 0.00 | 60 | 1003.0 |
| 20260505113048 | 20 | 360 | 19.3 | 32.2 | 0.00 | 0.00 | 0.00 | 60 | 1002.8 |
| 20260505111548 | 20 | 236 | 20.9 | 30.6 | 0.00 | 0.00 | 0.00 | 60 | 1003.0 |
| 20260505101541 | 20 | 360 | 20.9 | 32.2 | 0.00 | 0.00 | 0.00 | 59 | 1002.7 |
| 20260505100042 | 20 | 360 | 19.3 | 32.2 | 0.00 | 0.00 | 0.00 | 59 | 1002.6 |
| 20260505094532 | 20 | 360 | 20.9 | 32.2 | 0.00 | 0.00 | 0.00 | 59 | 1002.5 |
| 20260505093032 | 21 | 360 | 17.7 | 27.4 | 0.00 | 0.00 | 0.00 | 58 | 1002.7 |